Enola, Arkansas
Current Conditions -  °F | °C
As of 12:58 PM on Thursday 30 Oct 2014 (Local Time) from KLRF Reporting Station
Few Clouds Few Clouds  
Wind Chill: 69°   Ceiling: Unl
Heat Index: 69°   Visibility: 10mi
Dew Point: 44°   Wind: 7mph
Humidity: 41%   Direction: 180°S
Pressure: 30.11"   Gusts: NA
Location:  35.2°N, 92.2°W
Report Text: KLRF 301758Z AUTO 18006KT 10SM FEW160 21/07 A3011 RMK AO2 SLP198 T02060068 10207 20043 58019
Loading
Personal Weather Stations






























Interactive Weather Map
Tropical Storm Tracking
New forecast layout! Learn more

10-Day Weather Forecast

Advertisements
Track Severe Weather on mobile